Time;durP1;ratioP1;P1;durP2;ratioP2;P2;SDS_P1;SDS_P2;PMS_P1;PMS_P2;Temp;Humidity;BMP_temperature;BMP_pressure;BME280_temperature;BME280_humidity;BME280_pressure;Samples;Min_cycle;Max_cycle;Signal;HPM_P1;HPM_P2
2023/07/17 00:00:00;;;;;;;;;3.00;1.67;;;;;28.23;39.87;101635.75;5096788;27;45337;-69
2023/07/17 00:02:25;;;;;;;;;2.00;2.00;;;;;28.23;39.83;101644.59;5096615;27;46130;-69
2023/07/17 00:04:51;;;;;;;;;2.00;2.00;;;;;28.23;39.65;101643.78;5096636;27;45429;-69
2023/07/17 00:07:16;;;;;;;;;2.67;1.67;;;;;28.23;39.68;101643.78;5096794;27;45569;-69
2023/07/17 00:09:43;;;;;;;;;1.00;1.00;;;;;28.22;39.81;101637.59;5096030;27;45919;-66
2023/07/17 00:12:09;;;;;;;;;2.00;1.00;;;;;28.21;39.31;101641.28;5095212;27;46134;-69
2023/07/17 00:14:34;;;;;;;;;1.00;1.00;;;;;28.22;39.54;101648.28;5096040;27;45321;-69
2023/07/17 00:17:00;;;;;;;;;2.00;1.00;;;;;28.23;39.40;101639.25;5096373;27;45324;-69
2023/07/17 00:19:25;;;;;;;;;1.00;1.00;;;;;28.21;39.24;101638.63;5096528;27;45296;-69
2023/07/17 00:21:51;;;;;;;;;1.00;1.00;;;;;28.23;39.80;101646.44;5096188;27;46073;-70
2023/07/17 00:24:17;;;;;;;;;1.00;1.00;;;;;28.23;38.94;101635.75;5095907;27;45323;-69
2023/07/17 00:26:42;;;;;;;;;2.00;0.67;;;;;28.23;39.24;101639.25;5095287;27;45439;-69
2023/07/17 00:29:28;;;;;;;;;1.00;1.00;;;;;28.24;39.51;101640.88;5096525;27;45437;-69
2023/07/17 00:31:55;;;;;;;;;0.00;0.00;;;;;28.24;39.14;101637.38;5096300;27;47052;-69
2023/07/17 00:34:20;;;;;;;;;2.00;2.00;;;;;28.25;38.90;101644.38;5096046;27;45430;-69
2023/07/17 00:36:46;;;;;;;;;1.00;0.00;;;;;28.25;39.00;101639.03;5096287;27;45302;-69
2023/07/17 00:39:13;;;;;;;;;1.00;1.00;;;;;28.25;39.17;101636.38;5095918;27;45309;-69
2023/07/17 00:41:39;;;;;;;;;1.00;1.00;;;;;28.26;39.85;101632.69;5094800;27;47104;-69
2023/07/17 00:44:04;;;;;;;;;1.00;1.00;;;;;28.25;39.33;101639.88;5095870;27;45245;-69
2023/07/17 00:46:32;;;;;;;;;1.00;1.00;;;;;28.26;39.32;101633.47;5096128;27;45379;-69
2023/07/17 00:48:57;;;;;;;;;2.00;1.00;;;;;28.26;39.30;101635.34;5096261;27;45449;-68
2023/07/17 00:51:23;;;;;;;;;2.00;2.00;;;;;28.25;39.70;101649.75;5095704;27;47264;-69
2023/07/17 00:53:49;;;;;;;;;1.00;1.00;;;;;28.25;39.11;101642.53;5095615;27;45462;-69
2023/07/17 00:56:14;;;;;;;;;1.00;1.00;;;;;28.23;39.39;101646.44;5096040;27;45398;-69
2023/07/17 00:58:40;;;;;;;;;1.00;1.00;;;;;28.23;39.33;101641.94;5096089;27;45528;-69
2023/07/17 01:01:06;;;;;;;;;2.00;1.33;;;;;28.25;39.09;101639.03;5095870;27;47115;-69
2023/07/17 01:03:32;;;;;;;;;2.00;2.00;;;;;28.25;38.98;101647.91;5095817;27;45358;-68
2023/07/17 01:05:57;;;;;;;;;2.33;1.00;;;;;28.25;39.08;101647.06;5096163;27;45350;-69
2023/07/17 01:08:23;;;;;;;;;0.00;0.00;;;;;28.23;39.52;101649.97;5095716;27;45478;-69
2023/07/17 01:10:49;;;;;;;;;2.00;2.00;;;;;28.18;39.63;101639.84;5095867;27;45561;-69
2023/07/17 01:13:16;;;;;;;;;3.33;2.67;;;;;28.25;38.83;101655.09;5095883;27;45413;-69
2023/07/17 01:15:41;;;;;;;;;2.00;2.00;;;;;28.23;39.20;101649.13;5095859;27;45338;-68
2023/07/17 01:18:06;;;;;;;;;2.33;1.00;;;;;28.23;39.44;101651.81;5095568;27;45557;-69
2023/07/17 01:20:32;;;;;;;;;0.33;0.33;;;;;28.23;39.65;101657.16;5095858;27;46138;-69
2023/07/17 01:23:00;;;;;;;;;1.00;1.00;;;;;28.25;39.71;101660.44;5095129;27;45331;-69
2023/07/17 01:25:26;;;;;;;;;2.00;2.00;;;;;28.24;39.33;101656.09;5095719;27;45429;-68
2023/07/17 01:27:51;;;;;;;;;2.00;1.00;;;;;28.24;39.37;101654.25;5097852;27;45384;-69
2023/07/17 01:30:17;;;;;;;;;2.00;2.00;;;;;28.23;39.15;101652.63;5099010;27;46519;-69
2023/07/17 01:32:42;;;;;;;;;1.00;1.00;;;;;28.24;38.90;101658.78;5098878;27;45354;-69
2023/07/17 01:35:08;;;;;;;;;2.00;2.00;;;;;28.25;38.95;101649.75;5099133;27;45377;-69
2023/07/17 01:37:33;;;;;;;;;1.00;1.00;;;;;28.23;39.74;101651.81;5098743;27;45358;-69
2023/07/17 01:39:59;;;;;;;;;0.67;0.67;;;;;28.24;39.07;101654.25;5097638;27;47182;-69
2023/07/17 01:42:24;;;;;;;;;2.00;2.00;;;;;28.24;39.58;101664.97;5099012;27;45358;-69
2023/07/17 01:44:49;;;;;;;;;1.00;1.00;;;;;28.24;38.97;101662.28;5098752;27;45408;-70
2023/07/17 01:47:15;;;;;;;;;1.00;1.00;;;;;28.25;39.08;101668.47;5098727;27;45400;-68
2023/07/17 01:49:41;;;;;;;;;2.00;2.00;;;;;28.25;39.37;101665.78;5098710;27;45276;-68
2023/07/17 01:52:08;;;;;;;;;1.00;1.00;;;;;28.24;39.15;101664.97;5098275;27;45255;-69
2023/07/17 01:54:34;;;;;;;;;2.00;0.67;;;;;28.23;39.58;101660.66;5098677;27;45357;-69
2023/07/17 01:56:59;;;;;;;;;1.00;1.00;;;;;28.26;39.38;101665.59;5098659;27;45307;-69
2023/07/17 01:59:25;;;;;;;;;0.67;0.67;;;;;28.26;39.18;101672.81;5098518;27;46859;-69
2023/07/17 02:01:50;;;;;;;;;1.00;1.00;;;;;28.25;39.59;101663.94;5098681;27;45335;-69
2023/07/17 02:04:15;;;;;;;;;1.67;1.67;;;;;28.24;39.05;101662.28;5098682;27;45331;-69
2023/07/17 02:06:41;;;;;;;;;2.00;1.00;;;;;28.26;38.99;101664.78;5098255;27;45385;-71
2023/07/17 02:09:06;;;;;;;;;1.00;0.33;;;;;28.25;38.97;101658.59;5097192;27;46162;-69
2023/07/17 02:11:32;;;;;;;;;1.00;1.00;;;;;28.25;39.26;101665.78;5098388;27;45390;-69
2023/07/17 02:13:58;;;;;;;;;1.00;1.00;;;;;28.25;39.51;101665.78;5098608;27;45389;-69
2023/07/17 02:16:23;;;;;;;;;2.00;1.00;;;;;28.25;38.82;101665.78;5098430;27;45462;-69
2023/07/17 02:18:48;;;;;;;;;1.00;0.33;;;;;28.25;39.52;101668.47;5097928;27;47117;-69
2023/07/17 02:21:15;;;;;;;;;0.33;0.33;;;;;28.25;39.32;101665.78;5097939;27;45333;-69
2023/07/17 02:23:40;;;;;;;;;2.00;2.00;;;;;28.25;39.44;101666.63;5098209;27;45418;-69
2023/07/17 02:26:06;;;;;;;;;1.33;1.00;;;;;28.22;39.44;101666.19;5114203;27;45490;-69
2023/07/17 02:28:32;;;;;;;;;1.33;1.33;;;;;28.24;38.93;101672.16;5098084;27;46358;-69
2023/07/17 02:30:57;;;;;;;;;1.00;1.00;;;;;28.25;39.42;101668.47;5098188;27;45333;-69
2023/07/17 02:33:23;;;;;;;;;1.00;1.00;;;;;28.22;39.51;101664.34;5098151;27;45247;-69
2023/07/17 02:35:48;;;;;;;;;2.33;1.00;;;;;28.24;39.32;101666.81;5098029;27;45300;-69
2023/07/17 02:38:13;;;;;;;;;1.00;1.00;;;;;28.24;38.80;101664.97;5097919;27;46047;-69
2023/07/17 02:40:39;;;;;;;;;3.33;2.00;;;;;28.24;39.14;101673.00;5097840;27;45445;-69
2023/07/17 02:43:06;;;;;;;;;2.00;1.00;;;;;28.24;38.94;101672.16;5098032;27;45368;-69
2023/07/17 02:45:31;;;;;;;;;0.00;0.00;;;;;28.25;39.07;101674.66;5097802;27;45429;-68
2023/07/17 02:47:57;;;;;;;;;1.00;1.00;;;;;28.25;38.73;101676.50;5097565;27;46179;-69
2023/07/17 02:50:22;;;;;;;;;1.00;1.00;;;;;28.25;39.22;101677.31;5097469;27;45310;-69
2023/07/17 02:52:48;;;;;;;;;2.00;2.00;;;;;28.25;39.47;101680.00;5097810;27;45697;-69
2023/07/17 02:55:13;;;;;;;;;1.00;1.00;;;;;28.25;39.53;101677.31;5098015;27;45340;-69
2023/07/17 02:57:38;;;;;;;;;1.67;1.00;;;;;28.24;39.25;101673.00;5096265;27;47078;-69
2023/07/17 03:00:08;;;;;;;;;2.00;0.67;;;;;28.25;38.89;101688.03;5097590;27;45364;-69
2023/07/17 03:02:35;;;;;;;;;1.67;1.00;;;;;28.26;38.81;101694.22;5097794;27;45429;-69
2023/07/17 03:05:04;;;;;;;;;1.00;1.00;;;;;28.26;39.27;101680.84;5097064;27;45350;-69
2023/07/17 03:07:29;;;;;;;;;1.00;1.00;;;;;28.25;39.22;101682.69;5097311;27;46290;-69
2023/07/17 03:09:55;;;;;;;;;0.00;0.00;;;;;28.25;39.29;101684.53;5097408;27;45378;-69
2023/07/17 03:12:20;;;;;;;;;1.00;1.00;;;;;28.25;39.22;101685.34;5097485;27;46385;-69
2023/07/17 03:14:45;;;;;;;;;2.67;1.00;;;;;28.25;39.05;101684.53;5097505;27;45477;-69
2023/07/17 03:17:11;;;;;;;;;1.00;1.00;;;;;28.25;39.64;101680.00;5097146;27;52209;-69
2023/07/17 03:19:36;;;;;;;;;1.33;0.33;;;;;28.25;38.88;101684.53;5095662;27;45289;-69
2023/07/17 03:22:01;;;;;;;;;1.00;1.00;;;;;28.24;39.36;101683.69;5097419;27;45300;-69
2023/07/17 03:24:27;;;;;;;;;1.00;1.00;;;;;28.24;39.40;101683.69;5097369;27;45366;-69
2023/07/17 03:26:52;;;;;;;;;3.00;1.00;;;;;28.24;39.11;101686.38;5096758;27;57983;-69
2023/07/17 03:29:17;;;;;;;;;0.00;0.00;;;;;28.24;39.05;101683.69;5096076;27;45293;-69
2023/07/17 03:31:43;;;;;;;;;2.00;2.00;;;;;28.24;39.05;101696.25;5097298;27;45240;-69
2023/07/17 03:34:08;;;;;;;;;1.00;1.00;;;;;28.24;39.19;101699.75;5096875;27;45381;-69
2023/07/17 03:36:33;;;;;;;;;1.00;1.00;;;;;28.24;39.02;101698.91;5097071;27;45423;-69
2023/07/17 03:38:59;;;;;;;;;1.00;1.00;;;;;28.23;38.87;101691.94;5097115;27;45377;-69
2023/07/17 03:41:24;;;;;;;;;0.67;0.67;;;;;28.23;39.06;101699.97;5096996;27;47380;-69
2023/07/17 03:43:49;;;;;;;;;2.00;1.00;;;;;28.23;38.83;101698.13;5097048;27;45213;-69
2023/07/17 03:46:15;;;;;;;;;1.00;1.00;;;;;28.22;38.91;101700.97;5096853;27;45248;-69
2023/07/17 03:48:40;;;;;;;;;1.00;1.00;;;;;28.22;39.27;101704.47;5096620;27;45311;-69
2023/07/17 03:51:05;;;;;;;;;1.67;1.67;;;;;28.15;39.08;101703.66;5096353;27;45433;-69
2023/07/17 03:53:31;;;;;;;;;1.00;1.00;;;;;28.21;39.28;101700.16;5097053;27;45641;-69
2023/07/17 03:55:56;;;;;;;;;0.67;0.67;;;;;28.24;38.61;101701.59;5096632;27;46282;-69
2023/07/17 03:58:22;;;;;;;;;0.00;0.00;;;;;28.24;39.10;101705.09;5096655;27;45295;-69
2023/07/17 04:00:47;;;;;;;;;1.00;1.00;;;;;28.23;39.21;101706.16;5096873;27;45359;-69
2023/07/17 04:03:12;;;;;;;;;2.00;2.00;;;;;28.25;39.54;101706.75;5096434;27;45249;-69
2023/07/17 04:05:38;;;;;;;;;1.00;1.00;;;;;28.24;39.19;101712.28;5096612;27;46092;-69
2023/07/17 04:08:03;;;;;;;;;0.00;0.00;;;;;28.25;38.84;101716.63;5096440;27;48279;-69
2023/07/17 04:10:29;;;;;;;;;1.67;0.00;;;;;28.24;39.02;101713.13;5096789;27;45314;-69
2023/07/17 04:12:54;;;;;;;;;1.00;1.00;;;;;28.25;38.98;101721.97;5096520;27;45519;-69
2023/07/17 04:15:19;;;;;;;;;1.00;1.00;;;;;28.24;39.23;101720.31;5096352;27;47158;-69
2023/07/17 04:17:45;;;;;;;;;0.33;0.33;;;;;28.23;39.08;101718.69;5096046;27;45311;-69
2023/07/17 04:20:11;;;;;;;;;1.00;1.00;;;;;28.26;39.06;101726.31;5096575;27;45330;-69
2023/07/17 04:22:36;;;;;;;;;2.67;1.00;;;;;28.25;39.03;101724.66;5096396;27;45516;-69
2023/07/17 04:25:03;;;;;;;;;0.33;0.33;;;;;28.23;39.23;101724.88;5096283;27;46297;-69
2023/07/17 04:27:29;;;;;;;;;0.33;0.33;;;;;28.24;39.37;101725.66;5096262;27;45450;-69
2023/07/17 04:29:55;;;;;;;;;0.00;0.00;;;;;28.25;39.35;101732.69;5096416;27;45346;-69
2023/07/17 04:32:20;;;;;;;;;1.00;1.00;;;;;28.23;39.05;101726.72;5094864;27;45741;-69
2023/07/17 04:34:46;;;;;;;;;1.00;1.00;;;;;28.24;38.67;101731.84;5096285;27;45676;-78
2023/07/17 04:37:11;;;;;;;;;0.33;0.33;;;;;28.19;39.26;101723.59;5096127;27;45487;-77
2023/07/17 04:39:37;;;;;;;;;2.00;2.00;;;;;28.21;39.38;101729.56;5095259;27;45438;-77
2023/07/17 04:42:02;;;;;;;;;0.67;0.33;;;;;28.26;39.22;101739.69;5096230;27;45415;-77
2023/07/17 04:44:27;;;;;;;;;0.33;0.33;;;;;27.76;39.16;101655.16;5096146;27;45547;-78
2023/07/17 04:46:53;;;;;;;;;0.33;0.33;;;;;27.85;39.18;101675.34;5095666;27;45434;-78
2023/07/17 04:49:18;;;;;;;;;1.67;1.67;;;;;28.24;39.26;101726.50;5096433;27;45310;-77
2023/07/17 04:51:43;;;;;;;;;1.00;1.00;;;;;28.07;39.48;101699.31;5096105;27;45383;-78
2023/07/17 04:54:09;;;;;;;;;0.33;0.33;;;;;28.10;39.09;101711.44;5095938;27;46588;-77
2023/07/17 04:56:34;;;;;;;;;1.33;1.33;;;;;28.29;39.40;101740.09;5095925;27;45460;-77
2023/07/17 04:59:00;;;;;;;;;2.00;1.00;;;;;28.02;38.98;101699.91;5096078;27;45471;-78
2023/07/17 05:01:25;;;;;;;;;1.00;1.00;;;;;27.99;39.47;101694.13;5095964;27;45487;-77
2023/07/17 05:03:50;;;;;;;;;1.00;1.00;;;;;28.34;38.74;101754.75;5099224;27;45464;-77
2023/07/17 05:06:16;;;;;;;;;1.00;1.00;;;;;28.35;39.32;101754.53;5099671;27;45466;-78
2023/07/17 05:08:41;;;;;;;;;2.00;1.00;;;;;28.27;39.08;101744.00;5099657;27;45378;-77
2023/07/17 05:11:06;;;;;;;;;0.33;0.33;;;;;28.40;39.15;101767.31;5099552;27;45437;-77
2023/07/17 05:13:32;;;;;;;;;1.00;1.00;;;;;27.57;38.60;101633.47;5099443;27;45488;-78
2023/07/17 05:15:57;;;;;;;;;0.33;0.33;;;;;27.80;39.17;101673.28;5099136;27;45292;-77
2023/07/17 05:18:22;;;;;;;;;3.00;1.00;;;;;28.48;38.97;101777.03;5099391;27;45517;-77
2023/07/17 05:20:50;;;;;;;;;2.00;2.00;;;;;28.46;38.48;101771.88;5099143;27;45389;-78
2023/07/17 05:23:16;;;;;;;;;0.67;0.67;;;;;28.53;39.04;101779.94;5081845;27;45422;-77
2023/07/17 05:25:52;;;;;;;;;0.00;0.00;;;;;28.56;38.96;101781.38;5078158;27;45324;-78
2023/07/17 05:28:17;;;;;;;;;1.00;1.00;;;;;28.58;38.51;101773.97;5078858;27;45381;-83
2023/07/17 05:30:43;;;;;;;;;1.67;1.00;;;;;28.35;38.83;101738.47;5078708;27;45440;-78
2023/07/17 05:33:08;;;;;;;;;1.00;1.00;;;;;28.62;38.90;101773.34;5078845;27;46099;-79
2023/07/17 05:35:33;;;;;;;;;1.00;1.00;;;;;28.67;38.58;101783.47;5079174;27;45312;-80
2023/07/17 05:37:59;;;;;;;;;3.00;3.00;;;;;28.59;36.39;101778.28;5079477;27;45369;-82
2023/07/17 05:40:24;;;;;;;;;2.00;2.00;;;;;28.22;35.51;101759.84;5088473;27;51188;-77
2023/07/17 05:42:50;;;;;;;;;4.67;3.33;;;;;28.13;36.25;101784.09;5078007;27;46438;-78
2023/07/17 05:45:15;;;;;;;;;4.00;3.67;;;;;27.89;36.15;101780.91;5098621;27;45536;-79
2023/07/17 05:47:40;;;;;;;;;2.00;2.00;;;;;27.62;36.07;101768.19;5098677;27;45505;-80
2023/07/17 05:50:07;;;;;;;;;5.00;2.67;;;;;27.54;36.28;101786.19;5099609;27;45531;-91
2023/07/17 05:52:32;;;;;;;;;4.33;1.00;;;;;27.51;36.34;101782.06;5096011;27;45418;-85
2023/07/17 05:54:57;;;;;;;;;3.00;3.00;;;;;27.53;36.82;101772.03;5098913;27;45611;-87
2023/07/17 05:57:23;;;;;;;;;1.00;1.00;;;;;27.68;36.98;101782.63;5098485;27;45401;-88
2023/07/17 05:59:48;;;;;;;;;4.00;2.00;;;;;27.78;36.83;101770.72;5098795;27;45546;-90
2023/07/17 06:02:15;;;;;;;;;3.33;2.00;;;;;28.05;36.24;101787.75;5099703;27;45915;-84
2023/07/17 06:04:42;;;;;;;;;0.33;0.33;;;;;28.27;36.48;101784.13;5099445;27;45435;-78
2023/07/17 06:07:07;;;;;;;;;3.33;2.00;;;;;28.55;36.51;101793.94;5097364;27;45317;-79
2023/07/17 06:09:36;;;;;;;;;2.33;2.00;;;;;28.80;35.70;101793.38;5098415;27;45339;-76
2023/07/17 06:12:01;;;;;;;;;1.33;0.33;;;;;28.99;35.39;101777.50;5098492;27;45414;-83
2023/07/17 06:14:27;;;;;;;;;2.67;1.33;;;;;29.24;35.52;101800.22;5097625;27;45382;-78
2023/07/17 06:16:53;;;;;;;;;2.33;2.00;;;;;29.33;34.66;101790.13;5098257;27;45384;-79
2023/07/17 06:19:18;;;;;;;;;4.67;3.00;;;;;29.36;34.79;101773.59;5098604;27;45383;-79
2023/07/17 06:21:44;;;;;;;;;5.00;2.00;;;;;29.60;34.92;101806.16;5098587;27;46539;-82
2023/07/17 06:24:09;;;;;;;;;4.00;1.67;;;;;29.68;34.57;101803.25;5098376;27;45365;-73
2023/07/17 06:26:36;;;;;;;;;2.00;2.00;;;;;29.58;34.57;101792.97;5098438;27;45333;-75
2023/07/17 06:29:05;;;;;;;;;4.00;2.67;;;;;29.67;34.51;101809.63;5097980;27;45413;-79
2023/07/17 06:31:31;;;;;;;;;2.33;2.33;;;;;29.40;34.63;101769.50;5097840;27;46372;-78
2023/07/17 06:33:57;;;;;;;;;4.00;3.00;;;;;29.58;35.63;101803.69;5098043;27;45651;-76
2023/07/17 06:36:22;;;;;;;;;3.33;2.33;;;;;29.66;35.27;101809.88;5098045;27;45381;-79
2023/07/17 06:38:47;;;;;;;;;2.33;1.67;;;;;29.59;35.27;101801.81;5098249;27;45373;-79
2023/07/17 06:41:14;;;;;;;;;2.67;2.00;;;;;29.65;35.61;101814.41;5097538;27;46018;-79
2023/07/17 06:43:39;;;;;;;;;1.33;1.33;;;;;29.66;35.35;101816.06;5097834;27;45387;-79
2023/07/17 06:46:05;;;;;;;;;2.00;2.00;;;;;29.66;35.62;101817.91;5097851;27;45369;-78
2023/07/17 06:48:30;;;;;;;;;3.00;1.67;;;;;29.40;35.26;101774.84;5097800;27;45574;-79
2023/07/17 06:50:56;;;;;;;;;1.00;1.00;;;;;29.66;35.27;101821.41;5097631;27;46342;-78
2023/07/17 06:53:21;;;;;;;;;2.33;1.67;;;;;29.66;34.86;101826.78;5096524;27;45393;-79
2023/07/17 06:55:54;;;;;;;;;1.00;1.00;;;;;29.62;35.33;101812.13;5097613;27;45372;-79
2023/07/17 06:58:20;;;;;;;;;1.00;1.00;;;;;29.65;35.49;101813.56;5097733;27;45501;-78
2023/07/17 07:00:45;;;;;;;;;2.33;1.00;;;;;29.70;35.66;101827.16;5097495;27;46173;-79
2023/07/17 07:03:10;;;;;;;;;2.00;2.00;;;;;29.57;35.51;101803.88;5097634;27;45289;-79
2023/07/17 07:05:36;;;;;;;;;1.33;1.33;;;;;29.68;35.60;101829.25;5097976;27;45333;-78
2023/07/17 07:08:02;;;;;;;;;0.67;0.67;;;;;29.69;35.86;101837.06;5097656;27;45325;-79
2023/07/17 07:10:28;;;;;;;;;2.00;2.00;;;;;29.66;35.85;101837.50;5097342;27;47438;-78
2023/07/17 07:12:53;;;;;;;;;2.00;2.00;;;;;29.51;35.98;101810.91;5097370;27;45463;-78
2023/07/17 07:15:18;;;;;;;;;2.00;2.00;;;;;29.63;36.02;101832.56;5097455;27;45412;-78
2023/07/17 07:17:44;;;;;;;;;1.00;0.67;;;;;29.60;35.94;101836.47;5097378;27;45460;-79
2023/07/17 07:20:09;;;;;;;;;1.00;1.00;;;;;29.63;36.18;101848.63;5097233;27;47291;-79
2023/07/17 07:22:35;;;;;;;;;2.67;1.00;;;;;29.60;35.98;101847.19;5097244;27;45322;-78
2023/07/17 07:25:00;;;;;;;;;2.00;2.00;;;;;29.62;36.12;101842.44;5096204;27;45401;-79
2023/07/17 07:27:26;;;;;;;;;2.00;2.00;;;;;29.60;36.09;101830.28;5097305;27;45361;-79
2023/07/17 07:29:52;;;;;;;;;1.00;1.00;;;;;29.60;36.14;101833.78;5097172;27;46906;-79
2023/07/17 07:32:17;;;;;;;;;3.00;3.00;;;;;29.58;35.88;101822.47;5097133;27;45287;-79
2023/07/17 07:34:42;;;;;;;;;1.33;1.33;;;;;29.68;36.17;101842.66;5097242;27;45405;-78
2023/07/17 07:37:08;;;;;;;;;0.33;0.33;;;;;29.74;36.08;101853.38;5097364;27;45395;-79
2023/07/17 07:39:33;;;;;;;;;2.00;2.00;;;;;29.75;36.36;101854.22;5096525;27;46119;-78
2023/07/17 07:41:58;;;;;;;;;1.00;1.00;;;;;29.69;36.21;101847.00;5097041;27;45324;-79
2023/07/17 07:44:24;;;;;;;;;1.00;1.00;;;;;29.77;36.18;101854.03;5097008;27;45397;-79
2023/07/17 07:46:49;;;;;;;;;1.00;0.33;;;;;29.77;36.32;101862.88;5096713;27;45278;-78
2023/07/17 07:49:15;;;;;;;;;2.67;2.67;;;;;29.70;36.35;101859.34;5096879;27;45277;-78
2023/07/17 07:51:40;;;;;;;;;0.00;0.00;;;;;29.74;36.16;101866.78;5096719;27;46935;-79
2023/07/17 07:54:06;;;;;;;;;0.67;0.33;;;;;29.49;36.14;101831.72;5096438;27;45296;-77
2023/07/17 07:56:31;;;;;;;;;1.00;1.00;;;;;29.73;36.53;101865.16;5097128;27;45293;-79
2023/07/17 07:58:56;;;;;;;;;4.00;3.00;;;;;29.74;36.27;101872.16;5097332;27;45322;-78
2023/07/17 08:01:22;;;;;;;;;1.00;1.00;;;;;29.67;35.95;101857.91;5096725;27;45367;-78
2023/07/17 08:03:47;;;;;;;;;2.33;2.00;;;;;29.59;36.32;101853.59;5096729;27;45318;-79
2023/07/17 08:06:13;;;;;;;;;1.00;1.00;;;;;29.73;36.34;101886.63;5096812;27;45314;-79
2023/07/17 08:08:38;;;;;;;;;1.67;1.67;;;;;29.69;36.28;101874.59;5096191;27;46105;-79
2023/07/17 08:11:03;;;;;;;;;1.00;1.00;;;;;29.70;36.49;101872.75;5096458;27;45396;-79
2023/07/17 08:13:29;;;;;;;;;2.33;1.00;;;;;29.69;36.41;101871.13;5096574;27;45366;-79
2023/07/17 08:15:54;;;;;;;;;2.00;2.00;;;;;29.72;36.27;101879.59;5096589;27;45326;-79
2023/07/17 08:18:19;;;;;;;;;2.00;2.00;;;;;29.73;36.62;101885.78;5096090;27;46653;-79
2023/07/17 08:20:45;;;;;;;;;3.33;2.67;;;;;29.63;36.35;101872.78;5096532;27;45333;-79
2023/07/17 08:23:10;;;;;;;;;1.00;1.00;;;;;29.63;36.29;101881.66;5096151;27;45311;-78
2023/07/17 08:25:36;;;;;;;;;1.33;1.33;;;;;29.68;36.62;101889.06;5096376;27;45467;-79
2023/07/17 08:28:01;;;;;;;;;1.67;1.00;;;;;29.73;36.61;101900.03;5096255;27;46026;-79
2023/07/17 08:30:26;;;;;;;;;2.00;2.00;;;;;29.74;36.35;101898.19;5096419;27;45300;-79
2023/07/17 08:32:52;;;;;;;;;2.00;1.00;;;;;29.73;36.47;101899.19;5096384;27;45302;-79
2023/07/17 08:35:17;;;;;;;;;1.00;1.00;;;;;29.73;36.60;101899.19;5095269;27;45527;-79
2023/07/17 08:37:42;;;;;;;;;1.00;1.00;;;;;29.77;36.05;101910.34;5099443;27;46024;-78
2023/07/17 08:40:10;;;;;;;;;2.00;2.00;;;;;29.65;36.64;101888.66;5099888;27;46627;-79
2023/07/17 08:42:37;;;;;;;;;2.33;2.33;;;;;29.77;36.47;101907.66;5100588;27;45357;-77
2023/07/17 08:45:04;;;;;;;;;1.00;1.00;;;;;29.78;36.45;101915.50;5100050;27;45389;-79
2023/07/17 08:47:30;;;;;;;;;3.00;1.33;;;;;29.62;36.56;101880.00;5099524;27;46074;-77
2023/07/17 08:49:56;;;;;;;;;2.67;1.00;;;;;29.54;36.50;101874.84;5099779;27;45404;-79
2023/07/17 08:52:22;;;;;;;;;0.33;0.33;;;;;29.74;36.68;101901.66;5099575;27;45484;-79
2023/07/17 08:54:47;;;;;;;;;2.00;2.00;;;;;29.70;36.65;101896.88;5099748;27;45492;-79
2023/07/17 08:57:13;;;;;;;;;0.67;0.67;;;;;29.80;36.38;101917.94;5099700;27;47245;-79
2023/07/17 08:59:39;;;;;;;;;2.33;2.00;;;;;29.54;36.78;101868.63;5099819;27;45340;-79
2023/07/17 09:02:04;;;;;;;;;0.33;0.33;;;;;29.76;36.77;101903.31;5099980;27;45350;-79
2023/07/17 09:04:31;;;;;;;;;0.00;0.00;;;;;29.75;36.54;101905.16;5098392;27;45306;-79
2023/07/17 09:06:56;;;;;;;;;3.33;1.33;;;;;29.77;36.67;101911.16;5099288;27;46159;-77
2023/07/17 09:09:22;;;;;;;;;1.33;1.33;;;;;29.40;36.84;101855.25;5099510;27;45414;-76
2023/07/17 09:12:05;;;;;;;;;1.33;1.33;;;;;29.68;36.66;101896.28;5099561;27;45718;-79
2023/07/17 09:14:30;;;;;;;;;2.33;1.33;;;;;29.73;36.70;101904.56;5099884;27;45252;-78
2023/07/17 09:17:04;;;;;;;;;1.67;1.67;;;;;29.80;36.46;101909.91;5099062;27;45488;-79
2023/07/17 09:19:33;;;;;;;;;0.67;0.33;;;;;29.49;36.60;101855.88;5099772;27;45316;-79
2023/07/17 09:22:03;;;;;;;;;1.00;1.00;;;;;29.84;36.73;101909.31;5098977;27;45368;-79
2023/07/17 09:24:28;;;;;;;;;0.00;0.00;;;;;29.38;36.49;101836.69;5099226;27;45456;-79
2023/07/17 09:26:55;;;;;;;;;3.00;1.33;;;;;29.88;36.62;101907.00;5098970;27;45984;-79
2023/07/17 09:29:25;;;;;;;;;0.33;0.33;;;;;29.89;36.49;101906.00;5099481;27;45370;-79
2023/07/17 09:31:51;;;;;;;;;1.00;1.00;;;;;29.87;36.50;101910.75;5098149;27;45444;-79
2023/07/17 09:34:18;;;;;;;;;0.33;0.33;;;;;29.87;36.75;101909.91;5099031;27;45160;-79
2023/07/17 09:36:44;;;;;;;;;1.33;1.33;;;;;29.80;36.66;101907.22;5098793;27;46033;-78
2023/07/17 09:39:10;;;;;;;;;0.00;0.00;;;;;29.90;36.50;101918.34;5098973;27;45510;-78
2023/07/17 09:41:36;;;;;;;;;3.00;0.33;;;;;29.81;36.46;101907.03;5099221;27;45466;-78
2023/07/17 09:44:06;;;;;;;;;1.67;1.67;;;;;29.89;36.84;101916.72;5099052;27;45525;-79
2023/07/17 09:46:37;;;;;;;;;1.00;1.00;;;;;29.88;36.60;101912.38;5098932;27;45321;-78
2023/07/17 09:49:09;;;;;;;;;1.00;1.00;;;;;29.45;36.69;101849.28;5098053;27;45322;-78
2023/07/17 09:51:36;;;;;;;;;1.00;0.00;;;;;29.68;36.76;101889.06;5097366;27;45513;-79
2023/07/17 09:54:02;;;;;;;;;1.00;1.00;;;;;29.84;36.71;101921.88;5098965;27;45643;-78
2023/07/17 09:56:32;;;;;;;;;1.33;1.33;;;;;29.67;37.04;101894.63;5098589;27;46366;-78
2023/07/17 09:59:07;;;;;;;;;1.00;1.00;;;;;29.51;36.23;101878.75;5098820;27;45366;-78
2023/07/17 10:01:36;;;;;;;;;1.67;1.67;;;;;29.83;36.86;101917.53;5098703;27;45229;-79
2023/07/17 10:04:07;;;;;;;;;0.33;0.33;;;;;29.79;36.86;101905.59;5098396;27;45325;-78
2023/07/17 10:06:33;;;;;;;;;2.33;1.00;;;;;29.60;36.97;101875.88;5098150;27;45437;-78
2023/07/17 10:09:01;;;;;;;;;1.00;1.00;;;;;29.76;36.74;101897.97;5098586;27;45308;-78
2023/07/17 10:11:27;;;;;;;;;1.67;1.67;;;;;29.81;36.74;101904.34;5098459;27;45384;-78
2023/07/17 10:13:54;;;;;;;;;1.00;1.00;;;;;29.82;36.67;101908.66;5098610;27;45366;-78
2023/07/17 10:16:21;;;;;;;;;2.00;1.00;;;;;29.86;36.71;101917.13;5098540;27;47182;-78
2023/07/17 10:18:48;;;;;;;;;0.67;0.67;;;;;29.85;36.59;101920.84;5097750;27;45463;-78
2023/07/17 10:21:17;;;;;;;;;1.33;0.33;;;;;29.84;36.84;101917.34;5098420;27;45267;-78
2023/07/17 10:23:44;;;;;;;;;1.00;1.00;;;;;29.85;36.74;101920.84;5096880;27;45577;-78
2023/07/17 10:26:11;;;;;;;;;1.33;1.33;;;;;29.52;37.01;101867.00;5098041;27;45413;-78
2023/07/17 10:28:37;;;;;;;;;1.00;1.00;;;;;29.77;37.20;101913.81;5098198;27;45435;-78
2023/07/17 10:31:23;;;;;;;;;0.00;0.00;;;;;29.86;36.65;101925.19;5098459;27;45514;-78
2023/07/17 10:33:51;;;;;;;;;1.00;1.00;;;;;29.80;37.14;101912.59;5097724;27;45365;-80
2023/07/17 10:36:18;;;;;;;;;2.00;2.00;;;;;29.78;36.72;101903.94;5098185;27;46278;-79
2023/07/17 10:38:51;;;;;;;;;1.00;1.00;;;;;29.73;36.78;101901.88;5097701;27;45307;-78
2023/07/17 10:41:16;;;;;;;;;2.00;1.00;;;;;29.90;36.60;101931.75;5098478;27;45434;-78
2023/07/17 10:43:53;;;;;;;;;2.00;2.00;;;;;29.88;36.46;101917.75;5098058;27;45540;-79
2023/07/17 10:46:19;;;;;;;;;1.00;1.00;;;;;29.90;36.81;101934.44;5097570;27;46305;-79
2023/07/17 10:48:44;;;;;;;;;0.67;0.67;;;;;29.66;36.84;101899.19;5097312;27;45327;-80
2023/07/17 10:51:10;;;;;;;;;1.67;1.67;;;;;29.88;36.75;101931.16;5098022;27;45371;-79
2023/07/17 10:53:35;;;;;;;;;2.00;2.00;;;;;29.87;36.87;101921.47;5097866;27;45499;-79
2023/07/17 10:56:01;;;;;;;;;1.67;1.67;;;;;29.49;37.06;101878.13;5097734;27;46356;-79
2023/07/17 10:58:26;;;;;;;;;1.33;1.33;;;;;29.73;36.69;101897.34;5097624;27;45340;-79
2023/07/17 11:00:52;;;;;;;;;1.00;1.00;;;;;29.86;36.75;101919.81;5096455;27;45225;-79
2023/07/17 11:03:22;;;;;;;;;0.67;0.67;;;;;29.83;36.77;101920.22;5097314;27;45274;-79
2023/07/17 11:05:48;;;;;;;;;1.00;1.00;;;;;29.70;37.08;101902.25;5097566;27;46084;-80
2023/07/17 11:08:14;;;;;;;;;1.67;1.33;;;;;29.69;36.35;101914.84;5097470;27;45415;-78
2023/07/17 11:10:42;;;;;;;;;1.00;1.00;;;;;29.79;37.35;101929.72;5097589;27;45384;-79
2023/07/17 11:13:08;;;;;;;;;1.00;1.00;;;;;29.78;36.51;101934.25;5097378;27;45380;-79
2023/07/17 11:15:35;;;;;;;;;1.00;1.00;;;;;29.72;36.43;101916.31;5097453;27;46013;-79
2023/07/17 11:18:02;;;;;;;;;2.33;1.00;;;;;29.76;37.07;101935.50;5096558;27;45309;-77